Time;durP1;ratioP1;P1;durP2;ratioP2;P2;SDS_P1;SDS_P2;PMS_P1;PMS_P2;Temp;Humidity;BMP_temperature;BMP_pressure;BME280_temperature;BME280_humidity;BME280_pressure;Samples;Min_cycle;Max_cycle;Signal;HPM_P1;HPM_P2
2021/12/22 00:02:09;;;;;;;45.75;23.65;;;;;;;-0.52;73.63;101386.98;2046603;87;32203;-73
2021/12/22 00:05:11;;;;;;;45.40;24.27;;;;;;;-0.55;73.60;101377.72;2046495;86;34117;-72
2021/12/22 00:08:13;;;;;;;43.52;25.55;;;;;;;-0.54;73.67;101384.34;2046556;87;30311;-70
2021/12/22 00:11:17;;;;;;;46.35;25.80;;;;;;;-0.52;73.75;101388.30;2046684;87;27689;-67
2021/12/22 00:14:19;;;;;;;48.85;23.87;;;;;;;-0.51;73.66;101384.80;2046207;87;29488;-70
2021/12/22 00:17:21;;;;;;;44.08;23.45;;;;;;;-0.53;73.71;101391.38;2046203;87;31715;-65
2021/12/22 00:20:24;;;;;;;51.48;25.65;;;;;;;-0.51;73.75;101394.92;2046239;87;34260;-73
2021/12/22 00:23:26;;;;;;;48.40;25.15;;;;;;;-0.49;73.79;101400.19;2046434;87;30074;-73
2021/12/22 00:26:28;;;;;;;40.03;23.47;;;;;;;-0.47;73.81;101399.34;2046417;87;27798;-70
2021/12/22 00:29:30;;;;;;;42.43;23.87;;;;;;;-0.47;73.81;101392.76;2046530;87;29076;-65
2021/12/22 00:32:34;;;;;;;38.92;23.57;;;;;;;-0.47;73.84;101388.81;2046493;86;32219;-62
2021/12/22 00:35:41;;;;;;;45.75;23.62;;;;;;;-0.44;73.82;101394.98;2046586;87;33343;-63
2021/12/22 00:38:42;;;;;;;46.00;24.85;;;;;;;-0.41;73.89;101395.03;2046220;87;30570;-61
2021/12/22 00:41:44;;;;;;;43.42;23.38;;;;;;;-0.39;73.85;101398.57;2046549;86;28194;-62
2021/12/22 00:44:49;;;;;;;45.95;23.77;;;;;;;-0.38;73.86;101399.02;2046524;86;28645;-68
2021/12/22 00:47:53;;;;;;;47.30;25.12;;;;;;;-0.38;73.85;101397.71;2046366;87;28200;-66
2021/12/22 00:50:55;;;;;;;44.63;24.18;;;;;;;-0.37;73.87;101401.66;2046126;87;33835;-70
2021/12/22 00:53:59;;;;;;;44.75;25.10;;;;;;;-0.37;73.84;101406.06;2046168;87;31447;-72
2021/12/22 00:57:04;;;;;;;45.55;24.95;;;;;;;-0.37;73.85;101408.25;2046614;87;27624;-67
2021/12/22 01:00:08;;;;;;;40.65;22.55;;;;;;;-0.37;73.86;101412.64;2046602;87;28734;-65
2021/12/22 01:03:09;;;;;;;44.48;23.70;;;;;;;-0.37;73.86;101421.86;2047004;87;31731;-74
2021/12/22 01:06:13;;;;;;;43.02;23.25;;;;;;;-0.40;73.84;101419.18;2045948;87;34239;-62
2021/12/22 01:09:15;;;;;;;45.48;25.08;;;;;;;-0.41;73.97;101411.70;2079422;85;29544;-67
2021/12/22 01:12:17;;;;;;;39.38;23.45;;;;;;;-0.36;73.97;101420.55;2052075;85;27766;-68
2021/12/22 01:15:19;;;;;;;39.48;23.38;;;;;;;-0.34;74.02;101415.33;2046248;87;29081;-69
2021/12/22 01:18:30;;;;;;;46.25;25.45;;;;;;;-0.35;73.83;101418.38;2046445;87;31485;-63
2021/12/22 01:21:38;;;;;;;40.78;23.80;;;;;;;-0.36;73.83;101420.55;2044763;87;33438;-61
2021/12/22 01:24:32;;;;;;;39.67;24.43;;;;;;;-0.39;73.77;101419.19;2044840;87;30291;-59
2021/12/22 01:27:40;;;;;;;41.05;24.57;;;;;;;-0.43;73.70;101420.03;2046580;87;27727;-67
2021/12/22 01:30:46;;;;;;;43.17;23.38;;;;;;;-0.48;73.64;101430.47;2046020;87;29789;-63
2021/12/22 01:33:48;;;;;;;42.62;23.02;;;;;;;-0.54;73.55;101422.92;2046514;86;31978;-59
2021/12/22 01:36:54;;;;;;;43.45;23.65;;;;;;;-0.62;73.55;101431.61;2046678;86;34209;-70
2021/12/22 01:39:56;;;;;;;41.33;24.45;;;;;;;-0.68;73.54;101424.92;2046599;87;29348;-70
2021/12/22 01:43:01;;;;;;;41.20;23.80;;;;;;;-0.76;73.50;101430.52;2046547;86;27753;-65
2021/12/22 01:49:16;;;;;;;46.65;23.62;;;;;;;-0.88;73.62;101432.94;2046579;86;31089;-72
2021/12/22 01:52:21;;;;;;;46.58;23.73;;;;;;;-0.89;73.82;101429.84;2046140;87;34330;-58
2021/12/22 01:55:34;;;;;;;43.73;23.90;;;;;;;-0.91;73.86;101436.41;2046584;87;36717;-59
2021/12/22 01:58:39;;;;;;;41.28;23.02;;;;;;;-0.93;73.93;101433.77;2046276;87;27649;-60
2021/12/22 02:01:41;;;;;;;43.87;22.35;;;;;;;-0.95;74.00;101431.55;2046309;87;28901;-59
2021/12/22 02:04:44;;;;;;;45.43;24.05;;;;;;;-0.93;74.05;101432.45;2046352;87;31076;-59
2021/12/22 02:07:48;;;;;;;44.93;22.45;;;;;;;-0.91;74.03;101435.09;2044773;87;34133;-58
2021/12/22 02:10:49;;;;;;;44.45;22.87;;;;;;;-0.93;74.04;101439.03;2045828;85;29793;-59
2021/12/22 02:13:59;;;;;;;45.67;23.65;;;;;;;-0.94;74.01;101438.58;2044595;87;27714;-58
2021/12/22 02:16:58;;;;;;;45.45;25.35;;;;;;;-0.94;74.03;101437.67;2040324;87;28353;-59
2021/12/22 02:20:00;;;;;;;52.85;28.23;;;;;;;-0.96;74.05;101436.76;2046316;87;31920;-67
2021/12/22 02:23:02;;;;;;;55.63;28.10;;;;;;;-0.96;74.02;101435.44;2046174;87;34059;-64
2021/12/22 02:26:13;;;;;;;60.52;28.87;;;;;;;-0.95;74.10;101442.48;2046185;86;30580;-62
2021/12/22 02:29:34;;;;;;;60.88;29.55;;;;;;;-0.94;74.08;101433.73;2045936;87;27678;-60
2021/12/22 02:32:57;;;;;;;51.92;27.25;;;;;;;-0.94;74.08;101434.63;2042771;87;29534;-58
2021/12/22 02:35:46;;;;;;;51.50;27.20;;;;;;;-0.96;74.02;101436.34;2042396;87;32280;-58
2021/12/22 02:38:49;;;;;;;51.02;27.05;;;;;;;-0.97;74.04;101434.58;2046223;87;33386;-61
2021/12/22 02:41:51;;;;;;;48.17;27.70;;;;;;;-0.98;74.06;101436.75;2045645;87;29346;-59
2021/12/22 02:44:53;;;;;;;55.00;27.32;;;;;;;-0.99;73.99;101437.61;2046423;86;27699;-58
2021/12/22 02:47:55;;;;;;;54.50;28.87;;;;;;;-1.01;74.03;101440.63;2046263;87;29524;-57
2021/12/22 02:51:01;;;;;;;55.78;29.27;;;;;;;-1.02;74.01;101438.86;2046290;87;30472;-57
2021/12/22 02:57:22;;;;;;;53.70;28.65;;;;;;;-1.06;73.95;101442.30;2046368;87;29537;-65
2021/12/22 03:06:57;;;;;;;56.23;27.35;;;;;;;-1.12;73.76;101444.39;2046508;87;31489;-63
2021/12/22 03:10:01;;;;;;;52.95;28.57;;;;;;;-1.15;73.70;101450.04;2045830;87;32933;-61
2021/12/22 03:13:04;;;;;;;54.23;26.75;;;;;;;-1.19;73.66;101441.22;2045426;87;29349;-59
2021/12/22 03:16:06;;;;;;;49.83;25.12;;;;;;;-1.23;73.59;101444.20;2038385;87;27698;-60
2021/12/22 03:19:10;;;;;;;50.43;27.20;;;;;;;-1.25;73.69;101448.99;2037900;87;30128;-58
2021/12/22 03:22:17;;;;;;;50.70;26.60;;;;;;;-1.25;73.67;101455.16;2005625;88;31885;-58
2021/12/22 03:25:17;;;;;;;48.40;26.27;;;;;;;-1.24;73.72;101462.59;2024132;87;33456;-71
2021/12/22 03:28:19;;;;;;;53.80;28.92;;;;;;;-1.24;73.69;101459.52;2038240;86;30118;-58
2021/12/22 03:31:22;;;;;;;55.15;26.95;;;;;;;-1.22;73.68;101463.52;2038047;87;27678;-61
2021/12/22 03:34:24;;;;;;;53.65;27.00;;;;;;;-1.20;73.66;101463.11;2038060;87;29875;-74
2021/12/22 03:37:26;;;;;;;53.60;27.77;;;;;;;-1.22;73.54;101469.64;2038239;87;31890;-73
2021/12/22 03:40:29;;;;;;;56.00;27.55;;;;;;;-1.20;73.57;101470.09;2038426;87;33137;-64
2021/12/22 03:43:31;;;;;;;48.15;26.17;;;;;;;-1.20;73.51;101467.47;2038495;87;29333;-71
2021/12/22 03:46:35;;;;;;;46.60;24.20;;;;;;;-1.19;73.51;101474.09;2038489;87;27601;-59
2021/12/22 03:49:37;;;;;;;49.67;25.60;;;;;;;-1.18;73.51;101474.55;2038413;87;28854;-59
2021/12/22 03:52:39;;;;;;;45.45;24.52;;;;;;;-1.17;73.46;101474.11;2038365;87;30978;-67
2021/12/22 03:55:41;;;;;;;44.80;22.27;;;;;;;-1.18;73.33;101468.39;2038487;87;32750;-64
2021/12/22 03:58:42;;;;;;;38.85;20.60;;;;;;;-1.18;73.30;101465.34;2038439;87;30408;-68
2021/12/22 04:01:45;;;;;;;39.40;21.35;;;;;;;-1.20;73.16;101468.78;2038114;87;27739;-61
2021/12/22 04:04:49;;;;;;;37.17;20.97;;;;;;;-1.22;73.19;101467.02;2038414;87;28899;-64
2021/12/22 04:07:53;;;;;;;34.43;19.73;;;;;;;-1.20;73.30;101471.00;2038370;85;31056;-66
2021/12/22 04:10:55;;;;;;;36.30;18.23;;;;;;;-1.20;73.17;101469.69;2038875;87;33437;-70
2021/12/22 04:13:59;;;;;;;30.97;17.30;;;;;;;-1.19;73.16;101466.20;2037969;87;30227;-71
2021/12/22 04:17:00;;;;;;;28.65;16.42;;;;;;;-1.20;73.06;101463.52;2038192;87;27634;-66
2021/12/22 04:20:04;;;;;;;29.60;16.90;;;;;;;-1.22;72.83;101464.83;2038281;87;30088;-72
2021/12/22 04:23:06;;;;;;;29.92;16.05;;;;;;;-1.25;72.82;101464.36;2038493;87;31053;-74
2021/12/22 04:26:08;;;;;;;32.70;17.92;;;;;;;-1.25;72.73;101473.97;2037985;87;33529;-69
2021/12/22 04:29:11;;;;;;;29.67;16.57;;;;;;;-1.25;72.73;101475.28;2038525;87;29729;-61
2021/12/22 04:32:13;;;;;;;32.53;17.50;;;;;;;-1.24;72.75;101477.05;2038591;87;27601;-58
2021/12/22 04:35:15;;;;;;;35.25;19.85;;;;;;;-1.22;72.69;101487.17;2038255;87;28825;-58
2021/12/22 04:38:18;;;;;;;40.85;20.77;;;;;;;-1.23;72.67;101482.77;2038247;87;31932;-63
2021/12/22 04:41:20;;;;;;;38.48;21.15;;;;;;;-1.22;72.66;101485.86;2038237;87;32970;-59
2021/12/22 04:44:22;;;;;;;41.25;21.95;;;;;;;-1.21;72.78;101492.89;2038739;87;29908;-57
2021/12/22 04:47:24;;;;;;;34.65;17.80;;;;;;;-1.19;72.80;101492.50;2038187;87;27708;-75
2021/12/22 04:50:27;;;;;;;32.65;17.73;;;;;;;-1.17;72.80;101496.04;2038156;87;29329;-73
2021/12/22 04:53:47;;;;;;;30.27;17.32;;;;;;;-1.15;72.72;101494.30;2038437;87;32183;-72
2021/12/22 04:56:33;;;;;;;34.38;19.00;;;;;;;-1.12;72.80;101504.00;2035149;87;33005;-74
2021/12/22 04:59:35;;;;;;;36.00;20.27;;;;;;;-1.09;72.71;101504.06;2038027;87;30215;-72
2021/12/22 05:02:38;;;;;;;36.98;19.48;;;;;;;-1.09;72.66;101506.25;2037989;87;27740;-76
2021/12/22 05:05:39;;;;;;;36.20;17.42;;;;;;;-1.04;72.67;101505.45;2038386;87;29117;-62
2021/12/22 05:08:41;;;;;;;31.70;18.70;;;;;;;-1.02;72.75;101502.43;2038248;87;31426;-73
2021/12/22 05:11:44;;;;;;;31.87;16.73;;;;;;;-1.00;72.56;101504.66;2037942;87;34353;-72
2021/12/22 05:14:49;;;;;;;30.68;16.55;;;;;;;-1.02;72.38;101501.98;2007675;88;29450;-73
2021/12/22 05:20:56;;;;;;;32.50;16.57;;;;;;;-1.00;72.48;101504.22;2013708;88;29024;-71
2021/12/22 05:23:59;;;;;;;33.75;17.23;;;;;;;-1.02;72.37;101504.61;2038266;87;31326;-62
2021/12/22 05:27:01;;;;;;;32.13;16.93;;;;;;;-1.03;72.26;101507.23;2046175;87;34206;-70
2021/12/22 05:30:06;;;;;;;34.83;18.27;;;;;;;-1.03;72.18;101512.48;2046563;87;30723;-73
2021/12/22 05:33:08;;;;;;;32.30;16.42;;;;;;;-1.04;72.23;101520.79;2046739;87;27705;-76
2021/12/22 05:36:10;;;;;;;29.82;15.78;;;;;;;-1.03;72.24;101525.20;2046671;87;29996;-78
2021/12/22 05:39:12;;;;;;;31.33;15.25;;;;;;;-1.04;72.06;101519.47;2046259;86;32412;-71
2021/12/22 05:42:14;;;;;;;31.07;16.12;;;;;;;-1.05;72.10;101517.70;2046141;85;34015;-74
2021/12/22 05:45:16;;;;;;;29.55;14.95;;;;;;;-1.04;72.11;101520.79;2046551;87;29693;-74
2021/12/22 05:48:19;;;;;;;29.92;15.63;;;;;;;-1.05;72.04;101526.04;2046670;87;27678;-72
2021/12/22 05:51:22;;;;;;;29.05;15.10;;;;;;;-1.05;72.05;101526.04;2046581;86;28823;-72
2021/12/22 05:54:24;;;;;;;28.40;15.23;;;;;;;-1.06;71.98;101531.70;2046561;87;31439;-75
2021/12/22 05:57:26;;;;;;;28.25;14.68;;;;;;;-1.07;71.94;101529.52;2046369;87;34173;-75
2021/12/22 06:00:28;;;;;;;24.18;12.58;;;;;;;-1.08;71.87;101533.01;2046906;87;29692;-71
2021/12/22 06:03:30;;;;;;;24.43;12.37;;;;;;;-1.09;71.65;101538.25;2046436;87;28256;-73
2021/12/22 06:06:34;;;;;;;26.80;13.25;;;;;;;-1.14;71.53;101531.57;2046282;87;28015;-74
2021/12/22 06:09:36;;;;;;;20.77;11.73;;;;;;;-1.15;71.67;101535.05;2046424;87;31910;-73
2021/12/22 06:12:38;;;;;;;19.82;10.55;;;;;;;-1.13;71.78;101535.97;2046689;86;32748;-71
2021/12/22 06:15:40;;;;;;;17.52;10.32;;;;;;;-1.16;71.26;101539.89;2042863;87;29732;-73
2021/12/22 06:18:44;;;;;;;16.30;9.23;;;;;;;-1.19;71.17;101537.19;2038635;87;27637;-71
2021/12/22 06:21:46;;;;;;;15.65;10.05;;;;;;;-1.23;71.10;101543.23;2038339;87;30015;-70
2021/12/22 06:24:48;;;;;;;19.12;10.20;;;;;;;-1.25;71.10;101546.27;2038231;87;32141;-71
2021/12/22 06:27:51;;;;;;;18.55;10.40;;;;;;;-1.27;71.26;101551.51;2038301;87;34087;-62
2021/12/22 06:30:53;;;;;;;18.62;11.50;;;;;;;-1.26;71.21;101552.37;2038325;87;29825;-72
2021/12/22 06:33:55;;;;;;;21.73;12.00;;;;;;;-1.26;71.12;101554.59;2038638;87;27757;-68
2021/12/22 06:36:57;;;;;;;21.80;12.63;;;;;;;-1.25;71.14;101554.16;2038423;87;29505;-66
2021/12/22 06:39:59;;;;;;;24.02;14.40;;;;;;;-1.26;71.25;101561.58;2038221;87;32411;-58
2021/12/22 06:43:01;;;;;;;23.35;13.58;;;;;;;-1.25;71.30;101556.78;2038493;87;34154;-65
2021/12/22 06:46:02;;;;;;;60.88;32.13;;;;;;;-1.22;71.36;101566.05;2038486;87;30626;-65
2021/12/22 06:49:04;;;;;;;230.45;107.95;;;;;;;-1.20;71.37;101564.75;2038352;87;27746;-69
2021/12/22 06:52:07;;;;;;;333.02;183.27;;;;;;;-1.22;71.10;101562.97;2038158;87;30086;-72
2021/12/22 06:55:09;;;;;;;136.10;77.40;;;;;;;-1.24;71.11;101560.74;2038519;87;31214;-72
2021/12/22 06:58:11;;;;;;;49.80;33.02;;;;;;;-1.24;71.13;101566.00;2038063;87;34279;-64
2021/12/22 07:01:18;;;;;;;75.37;51.98;;;;;;;-1.22;71.27;101570.86;2038001;87;30184;-59
2021/12/22 07:04:20;;;;;;;34.30;22.77;;;;;;;-1.20;71.17;101573.55;2051084;86;27734;-58
2021/12/22 07:07:23;;;;;;;40.28;26.20;;;;;;;-1.22;71.12;101566.92;2057766;86;28631;-59
2021/12/22 07:10:25;;;;;;;22.55;12.90;;;;;;;-1.22;71.12;101573.49;2053974;86;31914;-58
2021/12/22 07:13:28;;;;;;;26.42;14.58;;;;;;;-1.25;70.94;101570.83;2037666;87;34205;-58
2021/12/22 07:16:30;;;;;;;23.57;14.33;;;;;;;-1.26;70.94;101575.63;2037889;86;30300;-58
2021/12/22 07:19:33;;;;;;;22.05;13.25;;;;;;;-1.28;70.92;101572.48;2045949;85;27742;-58
2021/12/22 07:22:36;;;;;;;26.57;14.00;;;;;;;-1.31;70.89;101581.63;2039776;86;29168;-59
2021/12/22 07:25:38;;;;;;;27.05;14.63;;;;;;;-1.35;70.81;101585.07;2037775;87;32097;-59
2021/12/22 07:28:47;;;;;;;26.55;14.87;;;;;;;-1.35;70.98;101587.70;2053502;86;33146;-61
2021/12/22 07:31:49;;;;;;;27.25;14.93;;;;;;;-1.33;70.92;101589.94;2045259;86;30638;-58
2021/12/22 07:35:19;;;;;;;50.80;35.52;;;;;;;-1.34;70.96;101585.53;2038130;86;27653;-58
2021/12/22 07:38:30;;;;;;;22.93;13.90;;;;;;;-1.32;70.97;101595.66;2038386;87;28830;-74
2021/12/22 07:41:32;;;;;;;27.65;14.58;;;;;;;-1.30;70.82;101605.33;2030117;87;32428;-76
2021/12/22 07:44:34;;;;;;;22.67;13.50;;;;;;;-1.30;70.74;101602.70;2037979;87;34403;-70
2021/12/22 07:47:37;;;;;;;24.52;13.25;;;;;;;-1.28;70.84;101605.34;2038128;87;30700;-73
2021/12/22 07:50:38;;;;;;;29.15;13.78;;;;;;;-1.24;70.88;101609.83;2038328;87;27690;-64
2021/12/22 07:53:41;;;;;;;23.77;12.80;;;;;;;-1.20;70.79;101605.09;2037975;87;29533;-69
2021/12/22 07:56:43;;;;;;;20.90;11.35;;;;;;;-1.16;70.68;101613.51;2038430;87;31111;-65
2021/12/22 07:59:47;;;;;;;21.85;13.65;;;;;;;-1.14;70.60;101610.45;2032787;87;29677;-66
2021/12/22 08:02:49;;;;;;;26.62;15.65;;;;;;;-1.11;70.57;101610.97;2038133;87;29379;-63
2021/12/22 08:05:53;;;;;;;20.37;12.63;;;;;;;-1.01;70.75;101612.03;2038053;87;28327;-59
2021/12/22 08:08:55;;;;;;;36.25;17.45;;;;;;;-0.96;70.54;101613.89;2038247;86;28663;-61
2021/12/22 08:12:04;;;;;;;58.90;30.12;;;;;;;-0.88;70.60;101621.92;2038235;87;31866;-62
2021/12/22 08:15:04;;;;;;;25.82;16.07;;;;;;;-0.81;70.61;101618.53;2036834;87;32680;-61
2021/12/22 08:18:06;;;;;;;18.35;11.65;;;;;;;-0.75;70.42;101630.95;2038232;87;30038;-59
2021/12/22 08:21:08;;;;;;;20.70;12.53;;;;;;;-0.74;70.17;101622.61;2037967;87;27822;-60
2021/12/22 08:24:11;;;;;;;22.32;11.00;;;;;;;-0.74;70.02;101621.30;2037862;87;29519;-59
2021/12/22 08:27:13;;;;;;;21.48;12.05;;;;;;;-0.77;69.85;101615.56;2037917;86;32300;-60
2021/12/22 08:30:16;;;;;;;21.82;12.58;;;;;;;-0.75;69.91;101607.27;2038027;87;34362;-62
2021/12/22 08:33:24;;;;;;;24.40;12.70;;;;;;;-0.71;69.71;101606.88;2037844;87;30747;-68
2021/12/22 08:39:47;;;;;;;22.02;12.00;;;;;;;-0.59;69.52;101604.46;2038215;87;29702;-65
2021/12/22 08:42:50;;;;;;;16.20;10.58;;;;;;;-0.53;69.51;101598.00;2037947;87;31960;-64
2021/12/22 08:45:52;;;;;;;32.03;21.15;;;;;;;-0.49;69.21;101608.14;2037818;87;34335;-64
2021/12/22 08:48:57;;;;;;;24.00;12.80;;;;;;;-0.45;69.19;101620.50;2038040;87;30551;-71
2021/12/22 08:51:58;;;;;;;20.73;13.20;;;;;;;-0.40;69.17;101613.99;2037658;87;27711;-64
2021/12/22 08:55:01;;;;;;;21.27;11.93;;;;;;;-0.34;69.31;101612.34;2038215;87;28644;-68
2021/12/22 08:58:03;;;;;;;16.07;9.85;;;;;;;-0.29;68.96;101626.03;2038242;87;30840;-62
2021/12/22 09:01:06;;;;;;;15.83;9.78;;;;;;;-0.27;68.78;101625.63;2037818;87;34270;-59
2021/12/22 09:04:09;;;;;;;22.58;12.20;;;;;;;-0.19;68.79;101638.06;2038213;87;30010;-63
2021/12/22 09:07:28;;;;;;;29.48;16.05;;;;;;;-0.13;68.75;101635.95;2037953;87;27705;-59
2021/12/22 09:10:40;;;;;;;35.20;16.85;;;;;;;-0.08;68.54;101633.38;2035649;87;28757;-59
2021/12/22 09:13:43;;;;;;;37.08;19.85;;;;;;;-0.04;68.57;101632.58;2038176;87;31613;-59
2021/12/22 09:16:45;;;;;;;63.90;44.08;;;;;;;0.04;68.30;101630.06;2041422;87;34164;-58
2021/12/22 09:19:48;;;;;;;22.70;12.98;;;;;;;0.09;68.11;101632.31;2046014;86;30568;-58
2021/12/22 09:22:51;;;;;;;24.80;13.15;;;;;;;0.11;67.85;101635.45;2046644;87;27724;-58
2021/12/22 09:25:52;;;;;;;22.15;11.85;;;;;;;0.15;67.95;101637.69;2046408;87;29518;-59
2021/12/22 09:28:59;;;;;;;52.15;34.38;;;;;;;0.23;68.06;101640.44;2045984;87;31592;-60
2021/12/22 09:32:01;;;;;;;22.93;13.58;;;;;;;0.32;67.92;101623.45;2045994;86;34237;-64
2021/12/22 09:35:04;;;;;;;28.23;18.87;;;;;;;0.41;67.67;101618.30;2046398;87;29369;-65
2021/12/22 09:38:08;;;;;;;22.40;11.93;;;;;;;0.48;67.58;101606.53;2046501;87;27776;-59
2021/12/22 09:41:11;;;;;;;14.55;8.63;;;;;;;0.50;67.05;101608.77;2046722;87;28061;-68
2021/12/22 09:44:14;;;;;;;36.25;18.55;;;;;;;0.45;67.22;101612.21;2046773;87;30907;-62
2021/12/22 09:47:26;;;;;;;19.75;11.00;;;;;;;0.42;66.95;101617.44;2046166;87;33880;-62
2021/12/22 09:50:37;;;;;;;21.02;11.80;;;;;;;0.38;66.67;101614.74;2012426;88;29357;-64
2021/12/22 09:53:31;;;;;;;20.17;12.07;;;;;;;0.36;66.73;101615.15;2010243;88;27830;-60
2021/12/22 09:56:33;;;;;;;30.12;17.40;;;;;;;0.36;66.92;101616.02;2013519;87;28684;-58
2021/12/22 09:59:36;;;;;;;20.80;10.95;;;;;;;0.35;66.73;101614.25;2002009;88;32410;-59
2021/12/22 10:02:38;;;;;;;23.38;13.25;;;;;;;0.34;66.37;101610.29;2009456;88;33055;-72
2021/12/22 10:05:43;;;;;;;28.55;17.15;;;;;;;0.30;66.34;101604.09;2014641;88;30533;-59
2021/12/22 10:09:05;;;;;;;29.95;14.23;;;;;;;0.33;66.77;101604.14;2015102;88;37287;-59
2021/12/22 10:12:08;;;;;;;25.35;15.48;;;;;;;0.44;66.59;101605.16;2015146;88;28659;-62
2021/12/22 10:15:12;;;;;;;27.60;15.78;;;;;;;0.54;66.54;101594.73;2020390;87;31931;-59
2021/12/22 10:18:23;;;;;;;23.55;12.78;;;;;;;0.66;66.56;101593.59;2039378;85;33797;-66
2021/12/22 10:21:26;;;;;;;16.55;10.63;;;;;;;0.85;66.59;101595.09;2038412;87;29419;-63
2021/12/22 10:24:40;;;;;;;15.38;9.63;;;;;;;1.05;66.35;101589.61;2038150;86;27953;-75
2021/12/22 10:28:04;;;;;;;18.48;9.85;;;;;;;1.16;65.80;101588.86;2038045;87;29987;-71
2021/12/22 10:31:09;;;;;;;19.15;10.78;;;;;;;1.19;65.82;101590.18;2038422;87;31918;-67
2021/12/22 10:34:15;;;;;;;21.40;11.90;;;;;;;1.22;65.42;101592.86;2038550;87;33346;-65
2021/12/22 10:37:34;;;;;;;27.48;15.53;;;;;;;1.25;65.23;101578.38;2038175;87;29381;-58
2021/12/22 10:40:41;;;;;;;41.58;21.02;;;;;;;1.28;65.34;101574.87;2038462;87;27766;-63
2021/12/22 10:43:50;;;;;;;23.80;14.23;;;;;;;1.32;65.24;101572.30;2038710;87;29210;-64
2021/12/22 10:46:52;;;;;;;24.40;11.60;;;;;;;1.37;65.30;101573.65;2037988;87;32232;-62
2021/12/22 10:50:06;;;;;;;18.30;9.43;;;;;;;1.36;64.77;101568.79;2016045;87;27893;-68
2021/12/22 10:53:10;;;;;;;23.27;12.53;;;;;;;1.35;64.36;101565.70;2036943;87;29365;-70
2021/12/22 10:56:38;;;;;;;18.90;10.58;;;;;;;1.36;64.50;101572.75;2015436;87;27779;-67
2021/12/22 10:59:45;;;;;;;20.12;13.18;;;;;;;1.41;64.54;101570.59;2037267;87;29940;-75
2021/12/22 11:03:07;;;;;;;32.55;20.27;;;;;;;1.51;64.54;101554.84;2038306;87;31049;-59
2021/12/22 11:06:22;;;;;;;26.00;15.38;;;;;;;1.57;64.41;101554.45;2038094;87;32981;-65
2021/12/22 11:09:24;;;;;;;16.77;9.05;;;;;;;1.64;64.28;101561.12;2038027;87;30771;-62
2021/12/22 11:12:37;;;;;;;25.77;15.48;;;;;;;1.72;63.99;101558.95;2038329;87;27740;-60
2021/12/22 11:15:41;;;;;;;17.17;9.63;;;;;;;1.74;63.79;101563.36;2038262;86;29500;-68
2021/12/22 11:18:51;;;;;;;14.03;8.63;;;;;;;1.80;64.07;101566.06;2044567;87;31712;-66
2021/12/22 11:22:14;;;;;;;16.00;9.85;;;;;;;1.89;63.85;101555.99;2045116;87;34776;-66
2021/12/22 11:25:17;;;;;;;20.27;9.43;;;;;;;1.89;63.46;101548.06;2046128;87;29736;-68
2021/12/22 11:28:19;;;;;;;18.15;10.05;;;;;;;1.86;63.55;101547.17;2057014;85;28391;-62
2021/12/22 11:31:21;;;;;;;19.12;9.78;;;;;;;1.81;62.99;101544.05;2045669;85;29354;-67
2021/12/22 11:34:24;;;;;;;28.23;16.20;;;;;;;1.74;62.92;101539.59;2045557;87;32282;-66
2021/12/22 11:37:27;;;;;;;34.05;17.90;;;;;;;1.70;63.00;101547.06;2046001;87;33462;-65
2021/12/22 11:40:29;;;;;;;33.20;19.25;;;;;;;1.67;63.17;101537.80;2046376;87;29545;-64
2021/12/22 11:43:31;;;;;;;25.45;15.50;;;;;;;1.58;62.88;101528.46;2046438;87;27742;-60
2021/12/22 11:46:33;;;;;;;22.32;12.03;;;;;;;1.54;63.09;101529.34;2046178;87;29933;-66
2021/12/22 11:49:37;;;;;;;23.10;12.00;;;;;;;1.47;62.86;101517.39;2046429;87;31069;-68
2021/12/22 11:52:58;;;;;;;21.50;13.50;;;;;;;1.41;62.72;101513.83;2020579;87;33047;-58
2021/12/22 11:56:01;;;;;;;21.25;12.70;;;;;;;1.37;62.95;101507.64;2046327;87;30495;-61
2021/12/22 11:59:03;;;;;;;26.10;14.00;;;;;;;1.29;62.63;101511.97;2046367;87;27713;-60
2021/12/22 12:02:38;;;;;;;32.88;20.10;;;;;;;1.21;62.64;101498.28;2046554;87;29473;-60
2021/12/22 12:05:40;;;;;;;31.20;18.87;;;;;;;1.17;62.81;101502.17;2046299;87;32033;-60
2021/12/22 12:08:48;;;;;;;41.53;23.95;;;;;;;1.15;62.85;101499.98;2046362;87;33889;-58
2021/12/22 12:11:54;;;;;;;25.25;14.35;;;;;;;1.15;62.92;101497.34;2046648;87;30139;-59
2021/12/22 12:15:09;;;;;;;23.30;12.55;;;;;;;1.14;62.69;101495.58;2046113;87;27645;-60
2021/12/22 12:22:20;;;;;;;31.48;15.93;;;;;;;1.00;62.65;101487.08;2038035;87;32324;-59
2021/12/22 12:25:22;;;;;;;25.02;15.20;;;;;;;0.98;62.75;101498.08;2037603;87;33882;-66
2021/12/22 12:28:25;;;;;;;365.85;193.32;;;;;;;0.99;62.97;101495.89;2038457;87;29759;-58
2021/12/22 12:31:41;;;;;;;334.37;164.43;;;;;;;0.97;62.56;101485.75;2038536;87;28358;-59
2021/12/22 12:34:43;;;;;;;59.23;30.85;;;;;;;0.93;62.59;101484.37;2038359;87;28687;-59
2021/12/22 12:38:15;;;;;;;16.82;10.88;;;;;;;0.84;62.73;101483.84;2037979;87;32104;-58
2021/12/22 12:41:25;;;;;;;22.73;12.85;;;;;;;0.78;62.66;101484.67;2038287;87;33787;-61
2021/12/22 12:44:31;;;;;;;22.35;13.30;;;;;;;0.71;62.95;101480.22;2038406;87;29344;-58
2021/12/22 12:47:33;;;;;;;21.25;13.95;;;;;;;0.66;63.04;101472.27;2038236;87;27679;-58
2021/12/22 12:50:35;;;;;;;22.77;13.83;;;;;;;0.67;63.37;101479.28;2038322;87;29099;-59
2021/12/22 12:53:43;;;;;;;24.02;13.95;;;;;;;0.68;63.55;101479.73;2038216;87;31421;-60
2021/12/22 12:57:01;;;;;;;19.00;11.22;;;;;;;0.71;63.55;101486.82;2038341;87;33146;-60
2021/12/22 13:00:06;;;;;;;35.00;20.05;;;;;;;0.71;63.58;101473.18;2038047;87;30730;-59
2021/12/22 13:03:09;;;;;;;;;;;;;;;0.73;63.57;101480.68;2040862;87;27701;-58
2021/12/22 13:06:10;;;;;;;25.02;13.48;;;;;;;0.71;63.53;101473.18;2038280;87;29076;-63
2021/12/22 13:09:33;;;;;;;18.48;11.97;;;;;;;0.66;63.33;101471.37;2038287;87;31404;-60
2021/12/22 13:15:51;;;;;;;27.30;12.85;;;;;;;0.53;63.51;101469.03;2038210;87;30493;-66
2021/12/22 13:18:53;;;;;;;72.65;41.02;;;;;;;0.50;63.59;101469.89;2038168;87;27629;-62
2021/12/22 13:21:56;;;;;;;75.57;45.75;;;;;;;0.42;63.64;101471.13;2038119;87;28738;-58
2021/12/22 13:25:18;;;;;;;63.92;41.35;;;;;;;0.38;63.70;101476.35;2037902;87;33149;-61
2021/12/22 13:28:29;;;;;;;62.67;37.90;;;;;;;0.36;63.93;101482.91;2038240;87;33846;-59
2021/12/22 13:31:31;;;;;;;57.05;30.37;;;;;;;0.35;63.86;101478.50;2038254;87;29338;-59
2021/12/22 13:34:44;;;;;;;48.90;25.92;;;;;;;0.34;64.04;101482.00;2038120;87;27606;-61
2021/12/22 13:37:50;;;;;;;58.73;31.65;;;;;;;0.34;64.00;101479.36;2033891;87;28669;-60
2021/12/22 13:41:06;;;;;;;55.92;26.75;;;;;;;0.34;63.99;101479.81;2035682;87;32076;-60
2021/12/22 13:44:08;;;;;;;22.30;11.63;;;;;;;0.36;64.15;101484.22;2035958;87;34151;-61
2021/12/22 13:47:10;;;;;;;18.60;10.78;;;;;;;0.40;64.22;101482.53;2035928;87;30476;-63
2021/12/22 13:50:12;;;;;;;32.73;23.90;;;;;;;0.41;64.15;101485.63;2035530;87;27683;-60
2021/12/22 13:53:17;;;;;;;178.45;99.72;;;;;;;0.48;64.25;101487.89;2035677;87;28674;-60
2021/12/22 13:56:21;;;;;;;99.15;55.12;;;;;;;0.51;64.13;101495.81;2035744;87;31874;-61
2021/12/22 13:59:24;;;;;;;50.15;29.72;;;;;;;0.53;64.20;101486.17;2035756;87;32959;-60
2021/12/22 14:02:34;;;;;;;19.12;11.53;;;;;;;0.55;64.20;101485.34;2035658;87;30209;-59
2021/12/22 14:05:37;;;;;;;28.00;17.95;;;;;;;0.55;64.13;101497.20;2035765;87;28111;-59
2021/12/22 14:08:39;;;;;;;17.00;11.00;;;;;;;0.52;64.12;101490.98;2035308;87;29560;-66
2021/12/22 14:11:49;;;;;;;69.60;37.48;;;;;;;0.50;64.02;101498.03;2035284;87;32370;-62
2021/12/22 14:14:56;;;;;;;52.90;29.42;;;;;;;0.47;64.16;101491.39;2035596;87;33002;-60
2021/12/22 14:17:58;;;;;;;58.68;32.10;;;;;;;0.43;64.27;101495.72;2035520;87;30493;-60
2021/12/22 14:21:00;;;;;;;37.30;22.25;;;;;;;0.40;64.25;101500.53;2035425;87;27659;-63
2021/12/22 14:24:02;;;;;;;31.73;17.32;;;;;;;0.37;64.33;101489.95;2035429;87;30079;-62
2021/12/22 14:27:07;;;;;;;41.35;23.42;;;;;;;0.31;64.18;101488.58;2035491;87;32238;-60
2021/12/22 14:30:29;;;;;;;34.92;17.52;;;;;;;0.26;64.24;101487.63;2035762;87;33041;-59